»·PEaware :: AAL1107 KPHX-KLAS

AAL1107 :: KPHX-KLAS

FLIGHT INFORMATION

Flight Status: Arrived
Operator:
American Airlines
More flights by this operator :: More flights under this callsign
Pilot: Dave P. (45)
Aircraft: BOEING 737-800
(B738)
More flights by this aircraft type
Origin: KPHX Phoenix Sky Harbor Intl
United States
Destination: KLAS McCarran Intl
United States
More flights between these airports :: More routes between these airports
Route: +ZEPER1 SISIE IGM TYSSN5
File this flight plan on PilotEdge
Remarks: PBN / A1B1C1D1S1S2 DOF / 181124 REG / N738PM EET / KZLA0023 OPR / AAL PER / D RMK / TCAS SIMBRIEF
Altitude:
(Current/Filed)
29,000ft
Speed:
(Current/Filed)
454kts
Departed: 24-Nov-18 09:08 AM
Arrived: 24-Nov-18 09:54 AM
Distance/Time
Traveled:
221nm/0:45
Distance/Time
To Go:
Arrived

Flight Plot

Page will automatically refresh every two minutes.

Flight plan parsing failed; only flown route is shown


Map Options




Map Legend


Flown Route
Filed Route
Departure Airport
Arrival Airport
Navaid (VOR, NDB)
Fix

Horizontal Profiles

Position Reports

Time Latitude Longitude Heading Altitude Ground
Speed
24-Nov-18 09:01 33.437712 -111.999835 90 1143ft 0kts
24-Nov-18 09:02 33.437712 -111.999835 90 1143ft 0kts
24-Nov-18 09:03 33.437713 -112.000518 90 1143ft 0kts
24-Nov-18 09:04 33.437713 -112.000518 90 1143ft 0kts
24-Nov-18 09:05 33.437713 -112.000518 90 1143ft 0kts
24-Nov-18 09:06 33.438265 -112.000617 342 1143ft 7kts
24-Nov-18 09:07 33.438997 -112.006718 269 1143ft 25kts
24-Nov-18 09:08 33.438997 -112.015440 269 1143ft 28kts
24-Nov-18 09:09 33.438995 -112.024303 270 1143ft 25kts
24-Nov-18 09:10 33.439913 -112.029675 359 1143ft 8kts
24-Nov-18 09:11 33.440842 -112.024811 89 1143ft 75kts
24-Nov-18 09:12 33.440116 -111.976721 93 2764ft 166kts
24-Nov-18 09:13 33.436606 -111.906390 93 4442ft 255kts
24-Nov-18 09:14 33.479812 -111.844955 10 7418ft 285kts
24-Nov-18 09:15 33.560312 -111.837389 358 9057ft 291kts
24-Nov-18 09:16 33.643902 -111.836736 355 11624ft 325kts
24-Nov-18 09:17 33.735561 -111.865126 316 13828ft 350kts
24-Nov-18 09:18 33.797671 -111.956592 304 16754ft 361kts
24-Nov-18 09:19 33.858490 -112.055761 304 19435ft 374kts
24-Nov-18 09:20 33.921177 -112.158527 303 21032ft 385kts
24-Nov-18 09:21 33.983699 -112.261755 303 21060ft 383kts
24-Nov-18 09:22 34.054468 -112.360789 315 23264ft 397kts
24-Nov-18 09:23 34.140302 -112.447621 316 25190ft 409kts
24-Nov-18 09:24 34.228674 -112.536865 316 26939ft 418kts
24-Nov-18 09:25 34.317808 -112.626904 317 28050ft 418kts
24-Nov-18 09:26 34.406827 -112.716712 317 28065ft 415kts
24-Nov-18 09:27 34.495141 -112.806611 317 28064ft 415kts
24-Nov-18 09:28 34.583255 -112.897177 315 28062ft 414kts
24-Nov-18 09:29 34.668719 -112.990837 315 28058ft 414kts
24-Nov-18 09:30 34.754405 -113.084720 316 28055ft 414kts
24-Nov-18 09:31 34.839970 -113.178300 315 28053ft 414kts
24-Nov-18 09:32 34.925484 -113.272581 316 28051ft 414kts
24-Nov-18 09:33 35.001090 -113.377064 301 28051ft 411kts
24-Nov-18 09:34 35.058446 -113.497282 299 28050ft 405kts
24-Nov-18 09:35 35.113482 -113.615183 299 27725ft 392kts
24-Nov-18 09:36 35.166241 -113.728696 299 25822ft 379kts
24-Nov-18 09:37 35.217391 -113.839975 299 23851ft 370kts
24-Nov-18 09:38 35.273510 -113.942764 315 21914ft 362kts
24-Nov-18 09:39 35.351669 -114.018609 321 19995ft 354kts
24-Nov-18 09:40 35.428916 -114.090595 321 18142ft 344kts
24-Nov-18 09:41 35.504232 -114.160619 321 16319ft 336kts
24-Nov-18 09:42 35.577845 -114.229178 321 14543ft 329kts
24-Nov-18 09:43 35.650140 -114.296895 320 12914ft 319kts
24-Nov-18 09:44 35.716950 -114.359606 320 12239ft 287kts
24-Nov-18 09:45 35.785642 -114.404038 337 11681ft 282kts
24-Nov-18 09:46 35.837286 -114.470920 297 10825ft 271kts
24-Nov-18 09:47 35.871900 -114.550468 297 9872ft 261kts
24-Nov-18 09:48 35.906355 -114.629854 296 8641ft 262kts
24-Nov-18 09:49 35.938792 -114.703981 296 7998ft 237kts
24-Nov-18 09:50 35.969810 -114.775245 296 6842ft 234kts
24-Nov-18 09:51 35.998568 -114.841218 297 6232ft 198kts
24-Nov-18 09:52 36.024974 -114.900055 297 4902ft 193kts
24-Nov-18 09:53 36.050425 -114.957782 297 4293ft 190kts
24-Nov-18 09:54 36.073909 -115.013768 279 3929ft 179kts
24-Nov-18 09:55 36.073706 -115.074694 268 3018ft 164kts
24-Nov-18 09:56 36.073685 -115.128359 270 2193ft 150kts
24-Nov-18 09:57 36.074594 -115.145426 294 2189ft 10kts
24-Nov-18 09:58 36.077358 -115.146533 7 2189ft 12kts
24-Nov-18 09:59 36.077623 -115.141592 29 2189ft 8kts
24-Nov-18 10:00 36.080390 -115.140810 96 2189ft 6kts
24-Nov-18 10:01 36.080370 -115.140595 96 2189ft 0kts
24-Nov-18 10:02 36.080370 -115.140595 96 2189ft 0kts
24-Nov-18 10:03 36.080370 -115.140595 96 2189ft 0kts
24-Nov-18 10:04 36.080370 -115.140595 96 2189ft 0kts
24-Nov-18 10:05 36.080370 -115.140595 96 2189ft 0kts
24-Nov-18 10:06 36.080370 -115.140595 96 2189ft 0kts

Navigation Log

Ident Type
Flight plan parsing failed, navigation log unavailable